createdAt,value
2019-01-22T00:01:04.562Z,33.08
2019-01-22T00:03:32.595Z,33.35
2019-01-22T00:06:00.897Z,34.88
2019-01-22T00:08:29.250Z,33.75
2019-01-22T00:10:57.237Z,38.10
2019-01-22T00:13:25.736Z,38.92
2019-01-22T00:15:53.883Z,33.83
2019-01-22T00:18:22.618Z,32.15
2019-01-22T00:20:50.706Z,35.03
2019-01-22T00:23:19.118Z,33.20
2019-01-22T00:25:47.723Z,37.63
2019-01-22T00:28:15.942Z,32.70
2019-01-22T00:30:44.040Z,34.00
2019-01-22T00:33:12.136Z,33.00
2019-01-22T00:35:40.373Z,35.50
2019-01-22T00:38:08.778Z,39.83
2019-01-22T00:40:37.154Z,35.80
2019-01-22T00:43:05.356Z,37.03
2019-01-22T00:45:33.846Z,33.08
2019-01-22T00:48:02.059Z,32.00
2019-01-22T00:50:30.401Z,36.00
2019-01-22T00:52:59.194Z,37.78
2019-01-22T00:55:27.480Z,35.95
2019-01-22T00:57:55.945Z,35.23
2019-01-22T01:00:27.149Z,39.48
2019-01-22T01:02:55.630Z,37.50
2019-01-22T01:05:24.411Z,36.15
2019-01-22T01:07:52.605Z,35.90
2019-01-22T01:10:21.201Z,34.05
2019-01-22T01:12:49.389Z,36.20
2019-01-22T01:15:17.569Z,32.23
2019-01-22T01:17:45.778Z,37.80
2019-01-22T01:20:15.249Z,40.03
2019-01-22T01:22:43.677Z,37.63
2019-01-22T01:25:13.814Z,39.30
2019-01-22T01:27:42.088Z,39.98
2019-01-22T01:30:12.531Z,41.37
2019-01-22T01:32:40.803Z,39.53
2019-01-22T01:35:09.174Z,39.65
2019-01-22T01:37:37.252Z,37.33
2019-01-22T01:40:07.698Z,38.65
2019-01-22T01:42:36.293Z,34.03
2019-01-22T01:45:05.481Z,35.03
2019-01-22T01:47:33.678Z,39.83
2019-01-22T01:50:02.290Z,36.50
2019-01-22T01:52:30.590Z,31.35
2019-01-22T01:54:58.737Z,31.75
2019-01-22T01:57:26.062Z,35.65
2019-01-22T01:59:53.986Z,35.55
2019-01-22T02:02:22.442Z,36.55
2019-01-22T02:04:50.713Z,39.58
2019-01-22T02:07:19.023Z,35.10
2019-01-22T02:09:47.412Z,33.33
2019-01-22T02:12:18.352Z,31.37
2019-01-22T02:14:52.953Z,32.13
2019-01-22T02:18:12.425Z,33.78
2019-01-22T02:21:16.605Z,30.25
2019-01-22T02:24:05.034Z,32.85
2019-01-22T02:26:56.250Z,34.65
2019-01-22T02:29:47.534Z,31.57
2019-01-22T02:33:08.542Z,34.53
2019-01-22T02:35:52.232Z,33.05
2019-01-22T02:39:08.538Z,36.58
2019-01-22T02:42:09.860Z,32.45
2019-01-22T02:45:15.122Z,31.23
2019-01-22T02:48:21.712Z,32.08
2019-01-22T02:51:15.829Z,26.97
2019-01-22T02:54:03.749Z,27.77
2019-01-22T02:57:37.491Z,28.10
2019-01-22T03:00:43.942Z,27.70
2019-01-22T03:03:39.217Z,31.12
2019-01-22T03:06:53.782Z,31.37
2019-01-22T03:09:53.529Z,28.60
2019-01-22T03:12:53.743Z,24.32
2019-01-22T03:15:41.652Z,30.70
2019-01-22T03:18:25.402Z,29.92
2019-01-22T03:21:29.633Z,23.25
2019-01-22T03:24:22.162Z,25.80
2019-01-22T03:27:44.603Z,29.70
2019-01-22T03:30:45.348Z,24.80
2019-01-22T03:33:30.658Z,24.63
2019-01-22T03:36:23.633Z,26.50
2019-01-22T03:39:34.763Z,22.80
2019-01-22T03:42:14.124Z,18.92
2019-01-22T03:45:07.506Z,23.70
2019-01-22T03:48:25.371Z,22.93
2019-01-22T03:51:39.745Z,24.23
2019-01-22T03:54:45.408Z,21.93
2019-01-22T03:57:39.038Z,20.32
2019-01-22T04:00:15.470Z,28.07
2019-01-22T04:02:44.458Z,22.77
2019-01-22T04:05:12.266Z,20.10
2019-01-22T04:07:39.620Z,31.02
2019-01-22T04:10:31.554Z,25.57
2019-01-22T04:13:00.626Z,21.37
2019-01-22T04:15:37.817Z,23.65
2019-01-22T04:18:06.437Z,24.40
2019-01-22T04:20:35.230Z,26.80
2019-01-22T04:23:07.862Z,20.20
2019-01-22T04:25:47.974Z,23.40
2019-01-22T04:28:54.210Z,18.50
2019-01-22T04:31:43.697Z,18.45
2019-01-22T04:34:39.177Z,18.42
2019-01-22T04:38:04.487Z,17.75
2019-01-22T04:41:04.518Z,18.27
2019-01-22T04:44:16.849Z,17.62
2019-01-22T04:47:02.431Z,18.60
2019-01-22T04:50:15.855Z,20.35
2019-01-22T04:53:16.370Z,19.62
2019-01-22T04:56:20.076Z,17.65
2019-01-22T04:59:20.899Z,19.48
2019-01-22T05:02:23.194Z,18.80
2019-01-22T05:05:11.359Z,18.45
2019-01-22T05:08:08.506Z,20.92
2019-01-22T05:11:02.662Z,23.65
2019-01-22T05:13:43.752Z,18.92
2019-01-22T05:16:34.755Z,17.27
2019-01-22T05:19:29.345Z,20.20
2019-01-22T05:22:33.525Z,20.40
2019-01-22T05:25:10.897Z,21.27
2019-01-22T05:28:20.222Z,25.32
2019-01-22T05:31:09.623Z,21.65
2019-01-22T05:34:01.028Z,19.20
2019-01-22T05:36:49.518Z,20.70
2019-01-22T05:40:00.295Z,24.50
2019-01-22T05:42:47.855Z,22.30
2019-01-22T05:45:41.821Z,22.02
2019-01-22T05:48:28.274Z,20.40
2019-01-22T05:51:10.181Z,25.55
2019-01-22T05:54:03.790Z,25.45
2019-01-22T05:57:02.678Z,22.07
2019-01-22T06:00:06.205Z,19.77
2019-01-22T06:03:21.299Z,22.30
2019-01-22T06:06:32.494Z,21.00
2019-01-22T06:09:14.922Z,21.35
2019-01-22T06:12:27.942Z,23.02
2019-01-22T06:15:11.726Z,23.47
2019-01-22T06:18:08.453Z,19.25
2019-01-22T06:20:52.522Z,22.75
2019-01-22T06:24:00.082Z,19.52
2019-01-22T06:26:54.869Z,16.95
2019-01-22T06:30:15.715Z,19.12
2019-01-22T06:33:29.266Z,20.08
2019-01-22T06:36:50.386Z,18.10
2019-01-22T06:39:50.221Z,22.70
2019-01-22T06:42:49.733Z,25.48
2019-01-22T06:45:53.629Z,20.45
2019-01-22T06:49:15.304Z,19.40
2019-01-22T06:52:26.017Z,22.42
2019-01-22T06:55:22.347Z,22.70
2019-01-22T06:58:18.126Z,22.60
2019-01-22T07:01:04.728Z,24.27
2019-01-22T07:04:02.587Z,23.20
2019-01-22T07:07:23.585Z,29.10
2019-01-22T07:10:07.567Z,20.85
2019-01-22T07:12:50.874Z,23.77
2019-01-22T07:15:49.464Z,26.23
2019-01-22T07:19:00.814Z,20.48
2019-01-22T07:21:52.968Z,24.05
2019-01-22T07:25:04.853Z,21.70
2019-01-22T07:28:03.575Z,20.82
2019-01-22T07:31:05.849Z,21.17
2019-01-22T07:34:16.956Z,19.42
2019-01-22T07:37:11.224Z,30.20
2019-01-22T07:40:17.488Z,25.48
2019-01-22T07:43:54.580Z,25.32
2019-01-22T07:47:03.499Z,24.15
2019-01-22T07:50:21.334Z,25.40
2019-01-22T07:53:05.582Z,26.20
2019-01-22T07:55:40.965Z,22.00
2019-01-22T07:58:35.592Z,23.57
2019-01-22T08:01:29.846Z,24.23
2019-01-22T08:04:30.538Z,39.65
2019-01-22T08:07:10.239Z,23.80
2019-01-22T08:10:14.904Z,29.27
2019-01-22T08:13:19.471Z,19.57
2019-01-22T08:16:19.333Z,24.12
2019-01-22T08:19:14.317Z,21.02
2019-01-22T08:22:42.454Z,21.68
2019-01-22T08:25:35.982Z,24.32
2019-01-22T08:28:26.441Z,19.37
2019-01-22T08:31:05.259Z,21.65
2019-01-22T08:34:09.056Z,20.82
2019-01-22T08:37:11.667Z,22.30
2019-01-22T08:40:14.427Z,21.07
2019-01-22T08:43:19.375Z,23.45
2019-01-22T08:46:15.264Z,22.58
2019-01-22T08:49:15.836Z,21.07
2019-01-22T08:52:10.376Z,25.32
2019-01-22T08:55:08.276Z,25.30
2019-01-22T08:58:13.729Z,25.57
2019-01-22T09:01:00.579Z,20.35
2019-01-22T09:04:06.217Z,24.27
2019-01-22T09:06:57.311Z,18.37
2019-01-22T09:09:54.923Z,16.62
2019-01-22T09:12:36.192Z,23.15
2019-01-22T09:15:31.310Z,17.73
2019-01-22T09:18:16.785Z,15.55
2019-01-22T09:20:51.146Z,19.50
2019-01-22T09:23:34.599Z,21.97
2019-01-22T09:26:26.215Z,16.70
2019-01-22T09:29:23.174Z,17.87
2019-01-22T09:32:08.302Z,17.55
2019-01-22T09:35:12.171Z,17.90
2019-01-22T09:37:46.774Z,16.12
2019-01-22T09:40:14.989Z,17.55
2019-01-22T09:42:43.360Z,19.30
2019-01-22T09:45:11.716Z,23.50
2019-01-22T09:47:40.287Z,16.50
2019-01-22T09:50:09.255Z,19.57
2019-01-22T09:52:37.833Z,21.00
2019-01-22T09:55:08.956Z,20.02
2019-01-22T09:57:37.581Z,18.60
2019-01-22T10:00:07.547Z,19.42
2019-01-22T10:02:35.518Z,18.67
2019-01-22T10:05:04.653Z,14.85
2019-01-22T10:07:32.908Z,18.37
2019-01-22T10:10:01.302Z,16.93
2019-01-22T10:12:29.495Z,15.98
2019-01-22T10:14:57.915Z,18.25
2019-01-22T10:17:26.202Z,15.18
2019-01-22T10:19:54.710Z,13.55
2019-01-22T10:22:23.029Z,16.25
2019-01-22T10:24:51.296Z,17.40
2019-01-22T10:27:19.850Z,14.45
2019-01-22T10:29:48.170Z,15.15
2019-01-22T10:32:16.778Z,14.50
2019-01-22T10:34:45.017Z,18.48
2019-01-22T10:37:13.302Z,18.32
2019-01-22T10:39:41.589Z,18.50
2019-01-22T10:42:09.781Z,15.10
2019-01-22T10:44:37.874Z,15.10
2019-01-22T10:47:06.202Z,16.80
2019-01-22T10:49:34.420Z,15.28
2019-01-22T10:52:02.841Z,14.83
2019-01-22T10:54:31.136Z,15.30
2019-01-22T10:56:59.385Z,14.78
2019-01-22T10:59:27.783Z,17.07
2019-01-22T11:01:56.105Z,14.50
2019-01-22T11:04:24.599Z,15.32
2019-01-22T11:06:53.413Z,13.58
2019-01-22T11:09:21.650Z,14.07
2019-01-22T11:11:50.205Z,16.00
2019-01-22T11:14:18.782Z,16.20
2019-01-22T11:16:47.009Z,16.27
2019-01-22T11:19:15.195Z,15.10
2019-01-22T11:21:43.376Z,15.88
2019-01-22T11:24:11.469Z,17.15
2019-01-22T11:26:39.765Z,13.78
2019-01-22T11:29:07.916Z,14.20
2019-01-22T11:31:36.558Z,15.10
2019-01-22T11:34:05.054Z,12.00
2019-01-22T11:36:33.561Z,13.35
2019-01-22T11:39:03.197Z,11.53
2019-01-22T11:41:31.602Z,15.10
2019-01-22T11:44:00.141Z,14.13
2019-01-22T11:46:28.190Z,15.45
2019-01-22T11:48:56.905Z,13.30
2019-01-22T11:51:24.025Z,13.70
2019-01-22T11:53:51.870Z,13.72
2019-01-22T11:56:19.734Z,14.10
2019-01-22T11:58:47.391Z,14.00
2019-01-22T12:01:14.671Z,16.37
2019-01-22T12:03:41.874Z,17.80
2019-01-22T12:06:09.152Z,14.73
2019-01-22T12:08:36.446Z,14.43
2019-01-22T12:11:04.010Z,16.67
2019-01-22T12:13:31.754Z,15.75
2019-01-22T12:15:59.432Z,16.42
2019-01-22T12:18:28.594Z,19.37
2019-01-22T12:20:56.207Z,15.95
2019-01-22T12:23:23.650Z,15.68
2019-01-22T12:25:57.240Z,20.92
2019-01-22T12:28:20.837Z,16.12
2019-01-22T12:30:48.461Z,18.67
2019-01-22T12:33:15.861Z,15.85
2019-01-22T12:35:43.307Z,17.75
2019-01-22T12:38:11.034Z,16.70
2019-01-22T12:40:39.409Z,18.50
2019-01-22T12:43:08.105Z,19.00
2019-01-22T12:45:37.483Z,16.50
2019-01-22T12:48:07.387Z,17.57
2019-01-22T12:50:36.002Z,17.52
2019-01-22T12:53:05.649Z,17.55
2019-01-22T12:55:34.342Z,17.92
2019-01-22T12:58:02.506Z,20.75
2019-01-22T13:00:31.546Z,18.60
2019-01-22T13:02:59.929Z,16.42
2019-01-22T13:05:55.234Z,20.55
2019-01-22T13:08:23.653Z,20.15
2019-01-22T13:10:52.350Z,21.55
2019-01-22T13:13:20.705Z,19.15
2019-01-22T13:15:49.138Z,20.85
2019-01-22T13:18:17.392Z,16.95
2019-01-22T13:20:46.081Z,22.52
2019-01-22T13:23:14.549Z,27.22
2019-01-22T13:25:43.250Z,17.90
2019-01-22T13:28:11.431Z,18.15
2019-01-22T13:30:39.670Z,21.35
2019-01-22T13:33:07.705Z,18.12
2019-01-22T13:35:35.882Z,22.48
2019-01-22T13:38:03.915Z,21.82
2019-01-22T13:40:32.362Z,20.25
2019-01-22T13:43:00.613Z,19.17
2019-01-22T13:45:29.426Z,19.17
2019-01-22T13:47:58.537Z,21.25
2019-01-22T13:50:26.732Z,20.00
2019-01-22T13:52:55.204Z,25.48
2019-01-22T13:55:28.222Z,19.55
2019-01-22T13:57:56.477Z,17.52
2019-01-22T14:00:24.810Z,21.05
2019-01-22T14:02:54.100Z,19.98
2019-01-22T14:05:22.745Z,20.20
2019-01-22T14:07:51.137Z,21.90
2019-01-22T14:10:19.286Z,19.35
2019-01-22T14:12:47.322Z,19.27
2019-01-22T14:15:20.734Z,22.37
2019-01-22T14:17:48.962Z,21.62
2019-01-22T14:20:17.241Z,20.52
2019-01-22T14:22:45.298Z,19.62
2019-01-22T14:25:14.726Z,25.85
2019-01-22T14:27:42.921Z,25.43
2019-01-22T14:30:14.746Z,24.23
2019-01-22T14:32:42.939Z,21.33
2019-01-22T14:35:11.108Z,22.05
2019-01-22T14:37:39.317Z,19.25
2019-01-22T14:40:07.934Z,22.82
2019-01-22T14:42:36.126Z,25.48
2019-01-22T14:45:05.203Z,21.95
2019-01-22T14:47:33.534Z,22.80
2019-01-22T14:50:01.699Z,19.87
2019-01-22T14:52:29.681Z,23.18
2019-01-22T14:54:57.710Z,23.00
2019-01-22T14:57:25.836Z,23.85
2019-01-22T14:59:53.817Z,22.90
2019-01-22T15:02:21.759Z,29.85
2019-01-22T15:04:49.842Z,22.93
2019-01-22T15:07:18.054Z,26.48
2019-01-22T15:09:46.246Z,25.85
2019-01-22T15:12:14.295Z,24.27
2019-01-22T15:14:42.397Z,28.40
2019-01-22T15:17:10.455Z,27.37
2019-01-22T15:19:38.727Z,31.50
2019-01-22T15:22:06.786Z,24.75
2019-01-22T15:24:34.738Z,26.07
2019-01-22T15:27:02.859Z,25.75
2019-01-22T15:29:30.902Z,25.12
2019-01-22T15:31:58.961Z,25.25
2019-01-22T15:34:27.158Z,26.45
2019-01-22T15:36:55.157Z,26.12
2019-01-22T15:39:23.350Z,27.65
2019-01-22T15:41:51.411Z,26.48
2019-01-22T15:44:19.842Z,27.80
2019-01-22T15:46:48.292Z,28.62
2019-01-22T15:49:16.338Z,30.25
2019-01-22T15:51:44.560Z,26.37
2019-01-22T15:54:12.611Z,30.10
2019-01-22T15:56:46.443Z,33.20
2019-01-22T15:59:11.108Z,33.48
2019-01-22T16:01:39.801Z,33.02
2019-01-22T16:04:08.104Z,29.80
2019-01-22T16:06:36.191Z,28.15
2019-01-22T16:09:06.812Z,29.23
2019-01-22T16:11:35.294Z,31.65
2019-01-22T16:14:03.511Z,31.07
2019-01-22T16:16:32.400Z,31.45
2019-01-22T16:19:00.835Z,24.57
2019-01-22T16:21:28.999Z,27.00
2019-01-22T16:23:57.795Z,24.90
2019-01-22T16:26:25.975Z,27.85
2019-01-22T16:28:54.543Z,30.43
2019-01-22T16:31:23.196Z,28.90
2019-01-22T16:33:51.971Z,26.97
2019-01-22T16:36:20.326Z,25.70
2019-01-22T16:38:49.451Z,26.68
2019-01-22T16:41:17.990Z,36.63
2019-01-22T16:43:47.311Z,34.67
2019-01-22T16:46:15.504Z,28.83
2019-01-22T16:48:44.284Z,30.48
2019-01-22T16:51:12.871Z,36.13
2019-01-22T16:53:41.214Z,29.95
2019-01-22T16:56:10.818Z,28.77
2019-01-22T16:58:39.043Z,31.10
2019-01-22T17:01:07.752Z,31.25
2019-01-22T17:03:36.052Z,31.82
2019-01-22T17:06:04.262Z,34.18
2019-01-22T17:08:33.025Z,31.95
2019-01-22T17:11:01.656Z,26.00
2019-01-22T17:13:30.101Z,36.20
2019-01-22T17:15:58.237Z,30.75
2019-01-22T17:18:26.401Z,27.22
2019-01-22T17:20:54.854Z,29.40
2019-01-22T17:23:21.874Z,28.57
2019-01-22T17:25:50.132Z,30.57
2019-01-22T17:28:17.408Z,30.85
2019-01-22T17:30:45.165Z,25.90
2019-01-22T17:33:43.710Z,28.87
2019-01-22T17:36:12.404Z,30.88
2019-01-22T17:38:40.949Z,26.70
2019-01-22T17:41:09.636Z,27.85
2019-01-22T17:43:38.366Z,27.30
2019-01-22T17:46:07.519Z,27.90
2019-01-22T17:48:35.715Z,31.27
2019-01-22T17:51:03.987Z,27.58
2019-01-22T17:53:32.089Z,28.38
2019-01-22T17:56:00.856Z,28.92
2019-01-22T17:58:29.158Z,32.30
2019-01-22T18:00:57.399Z,27.50
2019-01-22T18:03:26.011Z,29.95
2019-01-22T18:05:54.670Z,35.38
2019-01-22T18:08:23.161Z,32.93
2019-01-22T18:10:51.827Z,30.40
2019-01-22T18:13:20.586Z,34.38
2019-01-22T18:15:49.081Z,26.02
2019-01-22T18:18:16.738Z,36.25
2019-01-22T18:20:44.390Z,30.97
2019-01-22T18:23:12.090Z,30.32
2019-01-22T18:25:39.565Z,31.42
2019-01-22T18:28:06.969Z,31.33
2019-01-22T18:30:34.384Z,30.40
2019-01-22T18:33:01.869Z,34.53
2019-01-22T18:35:38.385Z,34.80
2019-01-22T18:38:06.185Z,30.27
2019-01-22T18:40:33.627Z,29.90
2019-01-22T18:43:01.438Z,34.80
2019-01-22T18:45:28.597Z,38.80
2019-01-22T18:47:56.414Z,39.85
2019-01-22T18:50:23.680Z,33.60
2019-01-22T18:52:51.342Z,31.77
2019-01-22T18:55:18.882Z,33.13
2019-01-22T18:57:46.565Z,32.23
2019-01-22T19:00:16.451Z,27.95
2019-01-22T19:02:43.858Z,34.33
2019-01-22T19:05:11.402Z,36.40
2019-01-22T19:07:38.845Z,31.77
2019-01-22T19:10:08.733Z,32.42
2019-01-22T19:12:36.073Z,32.28
2019-01-22T19:15:04.753Z,32.08
2019-01-22T19:17:32.585Z,28.50
2019-01-22T19:20:00.171Z,37.13
2019-01-22T19:22:28.016Z,33.58
2019-01-22T19:24:55.561Z,33.05
2019-01-22T19:27:22.858Z,34.27
2019-01-22T19:29:49.866Z,34.10
2019-01-22T19:32:17.190Z,37.67
2019-01-22T19:34:44.820Z,34.65
2019-01-22T19:37:17.105Z,32.58
2019-01-22T19:40:12.621Z,33.02
2019-01-22T19:42:40.431Z,31.48
2019-01-22T19:45:13.467Z,32.10
2019-01-22T19:47:40.770Z,41.35
2019-01-22T19:50:09.332Z,32.58
2019-01-22T19:52:36.858Z,35.35
2019-01-22T19:55:04.402Z,31.42
2019-01-22T19:57:31.577Z,39.38
2019-01-22T19:59:58.720Z,36.45
2019-01-22T20:02:25.869Z,35.05
2019-01-22T20:04:53.129Z,34.95
2019-01-22T20:07:20.185Z,41.90
2019-01-22T20:09:47.240Z,37.78
2019-01-22T20:12:14.385Z,39.70
2019-01-22T20:14:41.482Z,32.35
2019-01-22T20:17:08.551Z,41.63
2019-01-22T20:19:35.654Z,38.85
2019-01-22T20:22:03.063Z,37.48
2019-01-22T20:24:30.346Z,34.88
2019-01-22T20:26:57.443Z,36.55
2019-01-22T20:29:24.424Z,32.78
2019-01-22T20:31:51.408Z,37.85
2019-01-22T20:34:18.546Z,44.20
2019-01-22T20:36:45.618Z,35.63
2019-01-22T20:39:12.762Z,43.83
2019-01-22T20:41:39.984Z,39.25
2019-01-22T20:44:07.507Z,40.00
2019-01-22T20:46:35.694Z,40.23
2019-01-22T20:49:03.892Z,42.05
2019-01-22T20:51:32.174Z,40.48
2019-01-22T20:54:00.414Z,44.33
2019-01-22T20:56:29.268Z,46.15
2019-01-22T20:58:57.449Z,38.85
2019-01-22T21:01:25.765Z,42.65
2019-01-22T21:03:54.080Z,48.55
2019-01-22T21:06:22.242Z,44.75
2019-01-22T21:08:50.633Z,44.25
2019-01-22T21:11:19.126Z,45.23
2019-01-22T21:13:47.640Z,41.20
2019-01-22T21:16:15.820Z,40.55
2019-01-22T21:18:44.058Z,42.13
2019-01-22T21:21:12.060Z,48.98
2019-01-22T21:23:40.014Z,46.10
2019-01-22T21:26:08.524Z,44.33
2019-01-22T21:28:36.646Z,41.45
2019-01-22T21:31:04.613Z,42.78
2019-01-22T21:33:32.677Z,43.42
2019-01-22T21:36:00.750Z,44.25
2019-01-22T21:38:28.823Z,40.20
2019-01-22T21:40:57.140Z,49.40
2019-01-22T21:43:25.170Z,41.68
2019-01-22T21:45:53.290Z,45.17
2019-01-22T21:48:27.767Z,42.53
2019-01-22T21:50:59.014Z,40.63
2019-01-22T21:53:27.081Z,43.17
2019-01-22T21:55:55.025Z,39.30
2019-01-22T21:58:23.098Z,42.78
2019-01-22T22:00:51.219Z,47.53
2019-01-22T22:03:19.205Z,39.48
2019-01-22T22:05:47.730Z,41.53
2019-01-22T22:08:15.893Z,44.30
2019-01-22T22:10:43.923Z,42.98
2019-01-22T22:13:12.027Z,44.63
2019-01-22T22:15:40.414Z,37.98
2019-01-22T22:18:09.433Z,38.67
2019-01-22T22:20:42.509Z,42.95
2019-01-22T22:23:09.153Z,39.38
2019-01-22T22:25:37.118Z,43.78
2019-01-22T22:28:05.412Z,46.48
2019-01-22T22:30:35.522Z,41.25
2019-01-22T22:33:04.542Z,38.15
2019-01-22T22:35:33.194Z,38.98
2019-01-22T22:38:01.593Z,38.83
2019-01-22T22:40:30.194Z,39.83
2019-01-22T22:42:58.761Z,38.73
2019-01-22T22:45:27.085Z,43.42
2019-01-22T22:47:55.894Z,40.08
2019-01-22T22:50:29.461Z,40.80
2019-01-22T22:52:57.556Z,43.92
2019-01-22T22:55:25.694Z,36.60
2019-01-22T22:57:54.100Z,39.25
2019-01-22T23:00:41.599Z,38.38
2019-01-22T23:03:09.119Z,34.15
2019-01-22T23:05:36.377Z,40.88
2019-01-22T23:08:03.623Z,40.35
2019-01-22T23:10:30.882Z,42.17
2019-01-22T23:12:57.999Z,39.98
2019-01-22T23:15:25.178Z,35.98
2019-01-22T23:17:53.309Z,45.45
2019-01-22T23:20:21.770Z,40.23
2019-01-22T23:22:50.509Z,38.85
2019-01-22T23:25:19.362Z,39.20
2019-01-22T23:27:47.810Z,46.33
2019-01-22T23:30:16.382Z,38.23
2019-01-22T23:32:44.819Z,39.42
2019-01-22T23:35:13.284Z,39.92
2019-01-22T23:37:41.326Z,41.20
2019-01-22T23:40:10.108Z,43.02
2019-01-22T23:42:38.045Z,43.10
2019-01-22T23:45:07.905Z,45.00
2019-01-22T23:47:36.955Z,37.85
2019-01-22T23:50:05.953Z,43.08
2019-01-22T23:52:34.753Z,42.55
2019-01-22T23:55:03.832Z,35.63
2019-01-22T23:57:32.118Z,36.93
